Time;durP1;ratioP1;P1;durP2;ratioP2;P2;SDS_P1;SDS_P2;PMS_P1;PMS_P2;Temp;Humidity;BMP_temperature;BMP_pressure;BME280_temperature;BME280_humidity;BME280_pressure;Samples;Min_cycle;Max_cycle;Signal;HPM_P1;HPM_P2
2023/01/12 00:02:10;;;;;;;4.88;1.38;;;;;;;9.29;47.68;100819.78;5063261;28;20116;-70
2023/01/12 00:04:39;;;;;;;7.70;1.95;;;;;;;9.26;47.39;100817.28;5065151;28;20055;-70
2023/01/12 00:07:08;;;;;;;5.50;1.25;;;;;;;9.25;47.32;100815.53;5064533;28;20037;-70
2023/01/12 00:09:36;;;;;;;7.22;1.60;;;;;;;9.22;47.42;100823.13;5065048;28;20467;-70
2023/01/12 00:12:06;;;;;;;3.67;1.30;;;;;;;9.21;47.67;100819.53;5066102;28;20049;-70
2023/01/12 00:14:34;;;;;;;3.90;1.27;;;;;;;9.19;47.93;100818.78;5061315;28;20048;-70
2023/01/12 00:17:03;;;;;;;2.35;1.17;;;;;;;9.18;47.85;100808.84;5069808;28;20048;-70
2023/01/12 00:19:32;;;;;;;4.10;1.08;;;;;;;9.17;48.00;100808.97;5065809;28;20137;-70
2023/01/12 00:22:07;;;;;;;3.63;1.45;;;;;;;9.15;47.68;100805.53;5051497;28;20470;-70
2023/01/12 00:24:36;;;;;;;3.85;1.17;;;;;;;9.13;48.16;100804.78;5057398;28;20493;-70
2023/01/12 00:27:06;;;;;;;3.22;1.00;;;;;;;9.11;47.92;100804.91;5064696;28;20462;-70
2023/01/12 00:29:34;;;;;;;6.25;1.38;;;;;;;9.10;48.08;100805.88;5058527;28;20044;-70
2023/01/12 00:32:04;;;;;;;3.97;1.60;;;;;;;9.08;47.96;100803.28;5054632;28;20497;-70
2023/01/12 00:34:33;;;;;;;4.03;1.27;;;;;;;9.08;48.56;100799.72;5059973;28;20037;-70
2023/01/12 00:37:01;;;;;;;4.93;1.50;;;;;;;9.06;48.30;100785.31;5069565;28;20042;-70
2023/01/12 00:39:29;;;;;;;6.18;1.50;;;;;;;9.04;48.33;100796.34;5072454;28;20527;-70
2023/01/12 00:47:27;;;;;;;5.13;1.30;;;;;;;9.00;48.51;100774.91;5062047;28;20470;-71
2023/01/12 00:49:57;;;;;;;5.03;1.48;;;;;;;9.01;48.74;100785.69;5061944;28;20048;-71
2023/01/12 00:52:25;;;;;;;5.05;1.30;;;;;;;9.00;48.58;100772.19;5059440;28;20401;-70
2023/01/12 00:54:58;;;;;;;5.07;1.30;;;;;;;9.00;48.67;100762.09;5059829;28;20460;-70
2023/01/12 00:57:26;;;;;;;3.83;1.25;;;;;;;9.00;49.00;100780.38;5065098;28;20032;-70
2023/01/12 00:59:56;;;;;;;4.53;1.40;;;;;;;8.99;48.60;100774.03;5064608;28;20409;-70
2023/01/12 01:02:25;;;;;;;4.65;1.48;;;;;;;8.99;48.98;100764.97;5050546;28;20059;-70
2023/01/12 01:04:53;;;;;;;5.05;1.58;;;;;;;8.99;49.20;100771.31;5065285;28;20076;-70
2023/01/12 01:07:22;;;;;;;4.70;1.40;;;;;;;9.00;48.77;100766.72;5064136;28;20390;-70
2023/01/12 01:09:51;;;;;;;4.68;1.55;;;;;;;8.99;48.97;100768.59;5064670;28;20044;-70
2023/01/12 01:12:19;;;;;;;3.00;1.15;;;;;;;8.97;49.03;100773.28;5046777;28;20063;-70
2023/01/12 01:14:47;;;;;;;3.53;1.27;;;;;;;8.98;49.14;100765.97;5064460;28;20146;-70
2023/01/12 01:17:15;;;;;;;3.97;1.65;;;;;;;8.98;49.00;100765.97;5046412;28;20452;-70
2023/01/12 01:19:43;;;;;;;5.00;1.30;;;;;;;8.98;49.20;100774.16;5063157;28;20394;-70
2023/01/12 01:22:12;;;;;;;4.82;1.40;;;;;;;8.97;49.40;100776.03;5064711;28;20036;-70
2023/01/12 01:24:41;;;;;;;4.07;1.27;;;;;;;8.98;49.00;100776.88;5064940;28;20033;-70
2023/01/12 01:27:09;;;;;;;4.93;1.48;;;;;;;8.97;49.09;100773.28;5056577;28;20504;-69
2023/01/12 01:29:37;;;;;;;3.53;1.60;;;;;;;8.98;49.61;100776.88;5065639;28;20102;-70
2023/01/12 01:32:05;;;;;;;3.10;1.15;;;;;;;8.97;49.01;100773.28;5061954;28;20060;-70
2023/01/12 01:34:34;;;;;;;3.45;1.10;;;;;;;9.00;49.41;100772.19;5060765;28;20041;-71
2023/01/12 01:37:02;;;;;;;5.40;1.27;;;;;;;8.99;49.65;100764.97;5058507;28;20044;-70
2023/01/12 01:39:30;;;;;;;3.10;1.23;;;;;;;8.99;49.37;100757.66;5062929;28;20048;-70
2023/01/12 01:41:59;;;;;;;5.47;1.80;;;;;;;9.01;49.32;100758.38;5063585;28;20114;-70
2023/01/12 01:44:51;;;;;;;3.53;1.52;;;;;;;9.01;49.81;100761.09;5065523;28;20044;-70
2023/01/12 01:47:26;;;;;;;2.97;1.27;;;;;;;9.02;49.73;100759.25;5061725;28;20144;-69
2023/01/12 01:49:58;;;;;;;4.22;1.35;;;;;;;9.02;49.58;100753.78;5066614;28;20055;-70
2023/01/12 01:52:31;;;;;;;4.05;1.30;;;;;;;9.01;49.71;100750.19;5073111;28;20051;-71
2023/01/12 01:55:02;;;;;;;5.03;1.50;;;;;;;9.01;49.61;100749.31;5046050;28;20051;-71
2023/01/12 01:57:39;;;;;;;4.30;1.30;;;;;;;9.04;49.91;100754.53;5045975;28;20143;-70
2023/01/12 02:00:10;;;;;;;5.25;1.45;;;;;;;9.04;49.52;100730.84;5047094;28;20491;-70
2023/01/12 02:02:39;;;;;;;4.63;1.63;;;;;;;9.05;49.33;100739.91;5056743;28;20376;-70
2023/01/12 02:05:07;;;;;;;6.15;1.75;;;;;;;9.05;49.14;100726.25;5061999;28;20040;-70
2023/01/12 02:07:35;;;;;;;3.70;1.27;;;;;;;9.05;49.34;100721.66;5047327;28;20044;-70
2023/01/12 02:10:04;;;;;;;4.10;1.52;;;;;;;9.06;49.01;100722.53;5063213;28;20041;-70
2023/01/12 02:18:11;;;;;;;5.97;1.45;;;;;;;9.07;49.50;100699.69;5065586;28;20048;-70
2023/01/12 02:20:55;;;;;;;4.00;1.50;;;;;;;9.07;49.81;100697.84;5066847;28;20145;-70
2023/01/12 02:23:49;;;;;;;5.30;1.50;;;;;;;9.06;49.53;100696.09;5048153;28;20049;-70
2023/01/12 02:26:48;;;;;;;4.47;1.52;;;;;;;9.05;49.34;100702.53;5067037;28;20048;-70
2023/01/12 02:29:55;;;;;;;5.93;1.73;;;;;;;9.06;49.37;100687.03;5074245;28;20052;-70
2023/01/12 02:32:32;;;;;;;6.43;2.00;;;;;;;9.07;49.21;100691.50;5020008;28;20072;-70
2023/01/12 02:35:11;;;;;;;5.90;2.28;;;;;;;9.09;49.37;100686.75;5062271;28;20041;-70
2023/01/12 02:37:45;;;;;;;6.57;1.77;;;;;;;9.09;49.65;100694.94;5065639;28;20079;-70
2023/01/12 02:40:21;;;;;;;6.22;1.52;;;;;;;9.10;49.59;100683.03;5058134;28;20052;-69
2023/01/12 02:42:59;;;;;;;3.10;1.25;;;;;;;9.11;49.10;100684.78;5047263;28;20033;-69
2023/01/12 02:45:34;;;;;;;5.38;1.63;;;;;;;9.12;49.43;100682.91;5062073;28;20047;-69
2023/01/12 02:48:15;;;;;;;5.15;1.45;;;;;;;9.13;49.44;100660.94;5044733;28;20041;-70
2023/01/12 02:50:51;;;;;;;4.55;1.55;;;;;;;9.13;49.41;100682.78;5064060;28;20047;-69
2023/01/12 02:53:24;;;;;;;6.15;1.50;;;;;;;9.12;49.36;100672.84;5064998;28;20080;-70
2023/01/12 02:55:53;;;;;;;4.05;1.38;;;;;;;9.14;49.18;100675.47;5065617;28;20454;-70
2023/01/12 02:58:23;;;;;;;4.30;1.48;;;;;;;9.15;49.45;100658.97;5065499;28;20049;-69
2023/01/12 03:00:54;;;;;;;5.15;1.90;;;;;;;9.15;49.03;100652.63;5063861;28;20119;-70
2023/01/12 03:03:25;;;;;;;3.92;1.40;;;;;;;9.16;49.29;100665.28;5064568;28;20231;-69
2023/01/12 03:05:55;;;;;;;3.25;1.52;;;;;;;9.15;49.45;100653.50;5066705;28;20052;-70
2023/01/12 03:08:27;;;;;;;6.18;1.67;;;;;;;9.14;49.34;100651.75;5067370;28;20154;-69
2023/01/12 03:11:11;;;;;;;6.00;1.55;;;;;;;9.15;49.46;100647.16;5066511;28;20151;-69
2023/01/12 03:13:43;;;;;;;5.22;1.30;;;;;;;9.12;49.46;100648.28;5060416;28;20370;-69
2023/01/12 03:16:13;;;;;;;4.65;1.30;;;;;;;9.13;49.54;100638.25;5060816;28;20131;-69
2023/01/12 03:18:50;;;;;;;5.25;1.70;;;;;;;9.13;49.35;100650.03;5066194;28;20079;-69
2023/01/12 03:21:25;;;;;;;5.90;1.50;;;;;;;9.12;49.81;100644.69;5065142;28;20127;-70
2023/01/12 03:23:57;;;;;;;6.50;1.90;;;;;;;9.10;49.41;100629.31;5064924;28;20131;-70
2023/01/12 03:26:27;;;;;;;6.00;1.50;;;;;;;9.09;49.81;100654.88;5066176;28;20535;-70
2023/01/12 03:29:02;;;;;;;4.20;1.35;;;;;;;9.09;49.95;100633.03;5065022;28;20401;-70
2023/01/12 03:31:33;;;;;;;5.00;1.70;;;;;;;9.08;49.75;100628.56;5052963;28;20277;-70
2023/01/12 03:34:03;;;;;;;4.47;1.83;;;;;;;9.09;50.02;100632.16;5067221;28;20036;-70
2023/01/12 03:36:42;;;;;;;5.55;1.50;;;;;;;9.10;50.14;100620.25;5058459;28;20044;-69
2023/01/12 03:39:16;;;;;;;4.03;1.42;;;;;;;9.08;49.63;100625.00;5061508;28;20408;-70
2023/01/12 03:41:56;;;;;;;6.60;1.52;;;;;;;9.09;49.97;100622.09;5064143;28;20087;-70
2023/01/12 03:44:31;;;;;;;4.10;1.40;;;;;;;9.08;50.33;100609.44;5063828;28;20145;-70
2023/01/12 03:47:03;;;;;;;5.43;1.40;;;;;;;9.09;50.07;100613.03;5060944;28;20040;-70
2023/01/12 03:49:40;;;;;;;4.57;1.35;;;;;;;9.07;50.46;100610.47;5060748;28;20052;-70
2023/01/12 03:52:10;;;;;;;5.25;1.38;;;;;;;9.08;50.19;100614.06;5069661;28;20040;-70
2023/01/12 03:54:40;;;;;;;5.20;1.38;;;;;;;9.08;49.74;100595.78;5064588;28;20548;-70
2023/01/12 03:57:10;;;;;;;5.88;1.40;;;;;;;9.08;50.36;100593.06;5064081;28;20086;-69
2023/01/12 03:59:39;;;;;;;6.05;1.30;;;;;;;9.08;50.10;100581.31;5063376;28;20818;-70
2023/01/12 04:02:08;;;;;;;5.70;1.60;;;;;;;9.07;49.99;100566.78;5060710;28;20044;-70
2023/01/12 04:04:37;;;;;;;4.43;1.52;;;;;;;9.09;50.23;100581.16;5064488;28;20050;-69
2023/01/12 04:07:05;;;;;;;4.00;1.10;;;;;;;9.08;50.15;100578.59;5068251;28;20055;-71
2023/01/12 04:09:33;;;;;;;3.58;1.20;;;;;;;9.08;49.99;100578.59;5068127;28;20033;-72
2023/01/12 04:12:10;;;;;;;3.08;1.20;;;;;;;9.08;49.94;100568.50;5068724;28;20063;-71
2023/01/12 04:14:39;;;;;;;3.33;1.20;;;;;;;9.08;50.28;100568.50;5067800;28;20509;-72
2023/01/12 04:17:08;;;;;;;4.53;1.52;;;;;;;9.10;49.81;100569.25;5051179;28;20047;-72
2023/01/12 04:19:36;;;;;;;4.38;1.50;;;;;;;9.09;50.31;100553.84;5067928;28;20090;-72
2023/01/12 04:24:50;;;;;;;4.13;1.40;;;;;;;9.09;50.26;100572.09;5067831;28;20048;-72
2023/01/12 04:27:18;;;;;;;4.68;1.40;;;;;;;9.09;50.55;100562.03;5068546;28;20122;-72
2023/01/12 04:29:46;;;;;;;3.50;1.30;;;;;;;9.12;50.01;100565.50;5067089;28;20044;-72
2023/01/12 04:32:14;;;;;;;5.18;1.50;;;;;;;9.13;50.60;100561.78;5068453;28;20497;-71
2023/01/12 04:34:42;;;;;;;3.35;1.20;;;;;;;9.13;50.01;100556.34;5067457;28;20147;-72
2023/01/12 04:37:11;;;;;;;3.60;1.23;;;;;;;9.14;50.64;100556.22;5068398;28;20062;-71
2023/01/12 04:39:39;;;;;;;5.30;1.60;;;;;;;9.14;50.33;100544.41;5067371;28;20631;-73
2023/01/12 04:42:59;;;;;;;3.53;1.35;;;;;;;9.15;50.36;100535.22;5068659;28;20044;-73
2023/01/12 04:44:55;;;;;;;5.60;1.25;;;;;;;9.13;50.05;100535.34;5058109;28;20043;-72
2023/01/12 04:47:23;;;;;;;3.70;1.50;;;;;;;9.13;50.68;100529.03;5088894;28;20046;-73
2023/01/12 04:49:51;;;;;;;4.57;1.45;;;;;;;9.13;50.22;100529.91;5088081;28;20098;-72
2023/01/12 04:52:20;;;;;;;4.13;1.25;;;;;;;9.15;50.16;100519.72;5072152;28;20044;-72
2023/01/12 04:54:48;;;;;;;3.72;1.23;;;;;;;9.13;50.28;100504.47;5069947;28;20094;-70
2023/01/12 04:57:16;;;;;;;4.40;0.98;;;;;;;9.10;50.49;100501.00;5049547;28;20091;-72
2023/01/12 04:59:43;;;;;;;4.90;1.20;;;;;;;9.08;50.35;100489.34;5047354;28;20486;-71
2023/01/12 05:02:11;;;;;;;5.43;1.63;;;;;;;9.07;50.55;100487.63;5047791;28;20044;-72
2023/01/12 05:04:39;;;;;;;4.47;1.20;;;;;;;9.05;50.89;100491.47;5039262;28;20048;-71
2023/01/12 05:07:07;;;;;;;3.10;1.17;;;;;;;9.04;50.60;100492.47;5053999;28;20054;-71
2023/01/12 05:12:22;;;;;;;3.10;1.10;;;;;;;8.96;51.09;100476.78;5067358;28;20055;-72
2023/01/12 05:14:50;;;;;;;2.55;0.90;;;;;;;8.95;50.62;100474.16;5066115;28;20436;-71
2023/01/12 05:17:18;;;;;;;1.90;0.90;;;;;;;8.95;50.81;100476.91;5068338;28;20059;-71
2023/01/12 05:19:48;;;;;;;3.05;0.90;;;;;;;8.92;50.74;100472.56;5067287;28;20040;-71
2023/01/12 05:22:16;;;;;;;3.22;1.13;;;;;;;8.90;51.19;100471.84;5068239;28;20045;-71
2023/01/12 05:24:46;;;;;;;3.70;0.95;;;;;;;8.90;51.39;100473.72;5070861;28;20064;-71
2023/01/12 05:27:14;;;;;;;3.47;1.05;;;;;;;8.87;50.96;100465.78;5067296;28;20071;-71
2023/01/12 05:29:42;;;;;;;3.15;1.13;;;;;;;8.84;51.12;100463.31;5066574;28;20044;-72
2023/01/12 05:32:10;;;;;;;2.40;0.88;;;;;;;8.82;51.55;100458.00;5047130;28;20053;-71
2023/01/12 05:34:38;;;;;;;2.85;0.90;;;;;;;8.80;51.57;100450.94;5065809;28;20048;-71
2023/01/12 05:37:06;;;;;;;2.10;0.90;;;;;;;8.77;51.39;100452.06;5067074;28;20123;-72
2023/01/12 05:39:33;;;;;;;2.83;0.85;;;;;;;8.76;51.25;100433.97;5064342;28;21247;-71
2023/01/12 05:44:48;;;;;;;3.13;1.10;;;;;;;8.70;51.89;100427.19;5068442;28;20044;-72
2023/01/12 05:47:15;;;;;;;3.08;1.10;;;;;;;8.69;51.68;100397.28;5053475;28;20052;-72
2023/01/12 05:49:43;;;;;;;3.00;0.90;;;;;;;8.66;51.56;100412.09;5070441;28;20052;-71
2023/01/12 05:52:11;;;;;;;3.42;1.13;;;;;;;8.67;51.73;100393.88;5056841;28;20044;-72
2023/01/12 05:54:39;;;;;;;2.15;0.80;;;;;;;8.65;51.84;100393.13;5076482;28;20054;-72
2023/01/12 05:57:08;;;;;;;2.70;0.90;;;;;;;8.65;52.16;100382.22;5073069;28;20044;-70
2023/01/12 05:59:36;;;;;;;2.58;0.80;;;;;;;8.61;51.53;100370.69;5052388;28;20435;-71
2023/01/12 06:02:04;;;;;;;2.30;0.73;;;;;;;8.60;51.93;100384.47;5062159;28;20032;-70
2023/01/12 06:04:31;;;;;;;2.58;0.70;;;;;;;8.60;51.65;100387.19;5062244;28;20070;-72
2023/01/12 06:07:00;;;;;;;1.58;0.50;;;;;;;8.57;51.64;100366.50;5073698;28;20053;-72
2023/01/12 06:09:28;;;;;;;2.42;0.73;;;;;;;8.57;51.83;100393.78;5069478;28;20044;-71
2023/01/12 06:14:51;;;;;;;2.72;0.80;;;;;;;8.57;52.07;100395.66;5041043;28;20044;-70
2023/01/12 06:17:20;;;;;;;1.48;0.57;;;;;;;8.55;52.15;100357.59;5069015;28;20489;-71
2023/01/12 06:19:47;;;;;;;2.17;0.77;;;;;;;8.54;51.73;100369.50;5069606;28;20048;-71
2023/01/12 06:22:17;;;;;;;3.13;0.90;;;;;;;8.53;51.97;100386.00;5068640;28;20041;-70
2023/01/12 06:24:47;;;;;;;1.73;0.70;;;;;;;8.52;51.97;100390.56;5061088;28;20051;-72
2023/01/12 06:27:16;;;;;;;4.07;0.90;;;;;;;8.51;51.84;100361.56;5052154;28;20686;-72
2023/01/12 06:29:44;;;;;;;2.15;0.80;;;;;;;8.51;51.80;100379.78;5072712;28;20138;-71
2023/01/12 06:32:13;;;;;;;1.45;0.70;;;;;;;8.51;52.30;100377.06;5073038;28;20032;-70
2023/01/12 06:34:41;;;;;;;1.98;1.00;;;;;;;8.48;52.18;100364.59;5050998;28;20106;-71
2023/01/12 06:37:11;;;;;;;2.28;0.70;;;;;;;8.49;52.24;100363.59;5070186;28;20098;-71
2023/01/12 06:39:39;;;;;;;2.70;0.70;;;;;;;8.47;51.93;100357.41;5068163;28;20043;-71
2023/01/12 06:44:52;;;;;;;3.08;0.80;;;;;;;8.45;52.22;100356.66;5074392;28;20048;-69
2023/01/12 06:47:22;;;;;;;3.22;1.00;;;;;;;8.48;52.54;100352.81;5076906;28;20051;-68
2023/01/12 06:49:50;;;;;;;2.38;0.90;;;;;;;8.47;52.08;100348.34;5079589;28;20593;-71
2023/01/12 06:52:19;;;;;;;2.67;1.00;;;;;;;8.48;52.20;100348.22;5071313;28;20141;-71
2023/01/12 06:54:47;;;;;;;3.60;0.82;;;;;;;8.48;52.44;100344.63;5067283;28;20040;-71
2023/01/12 06:57:15;;;;;;;4.47;1.52;;;;;;;8.48;52.19;100339.16;5064699;28;20555;-71
2023/01/12 06:59:43;;;;;;;4.65;1.20;;;;;;;8.50;52.21;100334.47;5048163;28;20423;-71
2023/01/12 07:02:13;;;;;;;3.28;0.90;;;;;;;8.51;52.27;100341.63;5067581;28;20055;-72
2023/01/12 07:04:42;;;;;;;2.05;0.93;;;;;;;8.51;52.58;100363.44;5065050;28;20075;-71
2023/01/12 07:07:11;;;;;;;4.32;1.20;;;;;;;8.50;52.34;100326.28;5063334;28;20401;-72
2023/01/12 07:09:39;;;;;;;4.50;1.10;;;;;;;8.51;52.33;100327.97;5062952;28;20094;-72
2023/01/12 07:12:08;;;;;;;4.22;0.90;;;;;;;8.52;52.80;100340.63;5050571;28;20056;-71
2023/01/12 07:14:36;;;;;;;5.15;1.10;;;;;;;8.51;52.65;100344.34;5065913;28;20044;-71
2023/01/12 07:17:03;;;;;;;3.80;1.02;;;;;;;8.52;52.59;100335.16;5067125;28;20090;-70
2023/01/12 07:19:31;;;;;;;4.80;1.10;;;;;;;8.51;52.80;100339.75;5065582;28;20044;-71
2023/01/12 07:22:01;;;;;;;3.15;0.85;;;;;;;8.54;52.92;100341.34;5067208;28;20044;-71
2023/01/12 07:24:29;;;;;;;4.00;0.93;;;;;;;8.53;52.91;100345.94;5065837;28;20048;-72
2023/01/12 07:26:58;;;;;;;4.32;1.00;;;;;;;8.53;53.14;100329.59;5064522;28;20047;-72
2023/01/12 07:29:26;;;;;;;2.83;0.77;;;;;;;8.55;53.07;100324.88;5062452;28;20036;-71
2023/01/12 07:31:53;;;;;;;2.30;0.80;;;;;;;8.55;53.14;100329.44;5069024;28;20489;-71
2023/01/12 07:34:21;;;;;;;2.47;0.88;;;;;;;8.55;52.96;100321.28;5067501;28;20339;-72
2023/01/12 07:36:50;;;;;;;2.35;0.82;;;;;;;8.56;53.26;100336.63;5065186;28;20044;-72
2023/01/12 07:39:19;;;;;;;3.75;0.90;;;;;;;8.57;53.08;100327.47;5049594;28;20044;-71
2023/01/12 07:44:32;;;;;;;2.53;0.90;;;;;;;8.54;53.48;100339.50;5063225;28;20231;-71
2023/01/12 07:47:00;;;;;;;3.42;1.05;;;;;;;8.56;53.43;100339.38;5066191;28;20063;-72
2023/01/12 07:49:28;;;;;;;3.33;1.00;;;;;;;8.57;53.25;100341.97;5066678;28;20123;-71
2023/01/12 07:51:56;;;;;;;3.53;0.90;;;;;;;8.58;53.59;100351.03;5049315;28;20485;-71
2023/01/12 07:54:25;;;;;;;3.08;1.00;;;;;;;8.60;53.39;100341.69;5066298;28;20044;-72
2023/01/12 07:56:53;;;;;;;4.90;1.10;;;;;;;8.60;53.73;100343.53;5067880;28;20428;-72
2023/01/12 07:59:20;;;;;;;3.72;0.82;;;;;;;8.61;53.79;100334.38;5081446;28;20097;-72
2023/01/12 08:01:48;;;;;;;2.40;1.05;;;;;;;8.64;53.63;100343.16;5066491;28;20048;-72
2023/01/12 08:04:19;;;;;;;3.45;0.88;;;;;;;8.64;53.29;100334.97;5067384;28;20060;-71
2023/01/12 08:06:48;;;;;;;2.10;0.85;;;;;;;8.67;53.36;100342.03;5066047;28;20040;-71
2023/01/12 08:09:15;;;;;;;2.50;0.80;;;;;;;8.68;53.65;100332.81;5056004;28;20391;-70
2023/01/12 08:11:45;;;;;;;2.38;0.80;;;;;;;8.70;53.64;100331.69;5064389;28;20040;-72
2023/01/12 08:14:23;;;;;;;4.07;0.98;;;;;;;8.73;54.28;100332.44;5067134;28;20098;-68
2023/01/12 08:16:53;;;;;;;2.30;0.75;;;;;;;8.70;53.93;100339.88;5050079;28;20051;-72
2023/01/12 08:19:24;;;;;;;1.50;0.80;;;;;;;8.73;53.99;100348.81;5056534;28;20120;-69
2023/01/12 08:21:57;;;;;;;2.08;0.80;;;;;;;8.73;53.69;100359.72;5043100;28;20052;-72
2023/01/12 08:24:30;;;;;;;3.53;1.00;;;;;;;8.73;53.86;100362.44;5055186;28;20473;-72
2023/01/12 08:27:02;;;;;;;1.98;0.70;;;;;;;8.72;53.88;100356.13;5088781;28;20050;-72
2023/01/12 08:29:39;;;;;;;1.35;0.60;;;;;;;8.74;54.29;100345.06;5069448;28;20404;-71
2023/01/12 08:32:11;;;;;;;1.75;0.80;;;;;;;8.76;53.95;100354.84;5053466;28;20047;-72
2023/01/12 08:34:42;;;;;;;2.00;0.75;;;;;;;8.76;54.07;100356.69;5057203;28;20130;-71
2023/01/12 08:37:12;;;;;;;1.58;0.52;;;;;;;8.79;53.88;100349.13;5074455;28;20127;-71
2023/01/12 08:39:40;;;;;;;2.38;0.80;;;;;;;8.79;53.86;100348.25;5072052;28;20060;-73
2023/01/12 08:42:10;;;;;;;1.50;0.70;;;;;;;8.81;54.08;100346.25;5068226;28;20041;-71
2023/01/12 08:44:37;;;;;;;2.78;0.70;;;;;;;8.81;53.86;100351.72;5074612;28;20041;-71
2023/01/12 08:47:14;;;;;;;2.60;0.52;;;;;;;8.84;53.97;100355.03;5067983;28;20332;-71
2023/01/12 08:49:42;;;;;;;3.13;0.70;;;;;;;8.84;53.97;100344.09;5084368;28;20139;-71
2023/01/12 08:52:10;;;;;;;3.30;1.00;;;;;;;8.87;53.84;100351.16;5070153;28;20393;-71
2023/01/12 08:54:38;;;;;;;1.42;0.77;;;;;;;8.89;54.13;100351.91;5071544;28;20185;-75
2023/01/12 08:57:06;;;;;;;1.75;0.70;;;;;;;8.92;54.26;100351.59;5067575;28;20041;-72
2023/01/12 08:59:35;;;;;;;1.88;0.60;;;;;;;8.95;53.81;100351.34;5065087;28;20047;-75
2023/01/12 09:02:03;;;;;;;1.17;0.52;;;;;;;8.96;54.06;100356.69;5064766;28;20648;-72
2023/01/12 09:04:31;;;;;;;1.98;0.90;;;;;;;8.97;53.96;100355.69;5047367;28;20116;-72
2023/01/12 09:06:59;;;;;;;3.17;0.80;;;;;;;9.01;53.93;100353.53;5045123;28;20069;-71
2023/01/12 09:09:27;;;;;;;1.23;0.60;;;;;;;9.03;53.96;100351.53;5068539;28;20044;-71
2023/01/12 09:11:55;;;;;;;1.83;0.65;;;;;;;9.05;53.71;100352.28;5053588;28;20346;-72
2023/01/12 09:14:24;;;;;;;1.45;0.50;;;;;;;9.07;54.10;100350.28;5075964;28;20040;-72
2023/01/12 09:16:55;;;;;;;2.42;0.85;;;;;;;9.09;54.08;100348.25;5066595;28;20105;-72
2023/01/12 09:19:23;;;;;;;0.80;0.50;;;;;;;9.09;53.91;100360.03;5066359;28;20124;-71
2023/01/12 09:21:51;;;;;;;3.22;0.77;;;;;;;9.12;54.06;100358.03;5049035;28;20489;-72
2023/01/12 09:24:19;;;;;;;1.85;0.65;;;;;;;9.14;53.69;100366.97;5066982;28;20072;-72
2023/01/12 09:26:47;;;;;;;3.13;0.70;;;;;;;9.15;53.99;100360.50;5066481;28;20393;-71
2023/01/12 09:29:15;;;;;;;1.35;0.57;;;;;;;9.17;54.09;100369.41;5066023;28;20048;-71
2023/01/12 09:31:44;;;;;;;3.00;0.80;;;;;;;9.19;53.79;100379.19;5066623;28;20155;-72
2023/01/12 09:34:14;;;;;;;1.33;0.50;;;;;;;9.20;54.38;100367.28;5065961;28;20497;-72
2023/01/12 09:36:43;;;;;;;1.85;0.60;;;;;;;9.21;53.80;100362.69;5066500;28;20041;-72
2023/01/12 09:39:15;;;;;;;1.65;0.73;;;;;;;9.25;54.13;100369.56;5066340;28;20465;-72
2023/01/12 09:47:34;;;;;;;2.03;1.17;;;;;;;9.27;54.45;100390.28;5066861;28;20070;-72
2023/01/12 09:50:09;;;;;;;2.97;0.70;;;;;;;9.31;54.34;100386.28;5059570;28;20555;-72
2023/01/12 09:52:42;;;;;;;2.13;0.60;;;;;;;9.31;54.43;100390.88;5063012;28;20037;-72
2023/01/12 09:55:15;;;;;;;2.78;0.70;;;;;;;9.32;54.49;100384.44;5065712;28;20540;-72
2023/01/12 09:58:10;;;;;;;2.33;0.70;;;;;;;9.33;54.34;100386.16;5067077;28;20044;-72
2023/01/12 10:00:38;;;;;;;1.92;0.80;;;;;;;9.36;54.26;100391.31;5065589;28;20052;-72
2023/01/12 10:03:13;;;;;;;1.23;0.57;;;;;;;9.39;54.09;100400.16;5065454;28;20124;-71
2023/01/12 10:05:47;;;;;;;3.38;0.75;;;;;;;9.42;54.35;100388.94;5046481;28;20123;-72
2023/01/12 10:08:18;;;;;;;4.28;0.80;;;;;;;9.43;54.09;100401.59;5057280;28;20043;-68
2023/01/12 10:11:01;;;;;;;2.40;0.60;;;;;;;9.46;54.27;100406.78;5063099;28;20037;-69
2023/01/12 10:13:41;;;;;;;1.90;0.70;;;;;;;9.46;54.57;100404.06;5056131;28;20045;-69
2023/01/12 10:16:16;;;;;;;2.50;0.70;;;;;;;9.50;54.11;100406.50;5057998;28;20052;-69
2023/01/12 10:18:47;;;;;;;2.15;0.60;;;;;;;9.51;54.27;100400.91;5042878;28;20053;-68
2023/01/12 10:21:16;;;;;;;2.10;0.68;;;;;;;9.53;54.24;100406.22;5046530;28;20041;-69
2023/01/12 10:23:44;;;;;;;1.52;0.55;;;;;;;9.53;54.11;100387.97;5057576;28;20037;-69
2023/01/12 10:26:20;;;;;;;2.67;0.70;;;;;;;9.58;54.14;100395.75;5062483;28;20119;-68
2023/01/12 10:28:51;;;;;;;1.77;0.50;;;;;;;9.57;54.45;100410.44;5056982;28;20036;-68
2023/01/12 10:31:23;;;;;;;1.85;0.32;;;;;;;9.61;54.21;100407.25;5065376;28;20044;-68
2023/01/12 10:34:05;;;;;;;1.95;0.52;;;;;;;9.63;54.17;100409.88;5061601;28;20106;-68
2023/01/12 10:36:41;;;;;;;1.67;0.60;;;;;;;9.61;54.20;100415.47;5066467;28;20032;-68
2023/01/12 10:39:28;;;;;;;2.17;0.50;;;;;;;9.66;54.22;100418.63;5037496;28;20090;-69
2023/01/12 10:45:12;;;;;;;1.90;0.65;;;;;;;9.69;54.21;100398.38;5059225;28;20459;-68
2023/01/12 10:47:41;;;;;;;0.90;0.55;;;;;;;9.68;54.05;100405.69;5061684;28;20086;-68
2023/01/12 10:50:24;;;;;;;1.20;0.60;;;;;;;9.73;54.62;100408.91;5062163;28;20112;-68
2023/01/12 10:53:00;;;;;;;4.15;0.73;;;;;;;9.72;54.13;100409.91;5060534;28;21394;-68
2023/01/12 10:55:34;;;;;;;0.98;0.50;;;;;;;9.75;54.17;100386.88;5062142;28;20080;-67
2023/01/12 10:58:03;;;;;;;1.40;0.45;;;;;;;9.76;53.80;100402.25;5061778;28;20313;-68
2023/01/12 11:00:32;;;;;;;3.53;0.90;;;;;;;9.77;53.91;100401.25;5058929;28;20098;-68
2023/01/12 11:03:01;;;;;;;1.20;0.60;;;;;;;9.77;54.27;100402.13;5048329;28;20085;-68
2023/01/12 11:05:32;;;;;;;1.90;0.50;;;;;;;9.81;53.77;100400.00;5059176;28;20135;-68
2023/01/12 11:08:02;;;;;;;2.88;0.70;;;;;;;9.79;54.08;100402.88;5066141;28;20404;-69
2023/01/12 11:10:32;;;;;;;2.13;0.70;;;;;;;9.83;53.66;100400.69;5061857;28;20087;-68
2023/01/12 11:13:02;;;;;;;2.38;0.70;;;;;;;9.83;54.27;100404.28;5057932;28;20114;-68
2023/01/12 11:15:34;;;;;;;1.23;0.60;;;;;;;9.84;54.22;100406.03;5059135;28;20052;-69
2023/01/12 11:18:28;;;;;;;1.20;0.60;;;;;;;9.87;54.51;100417.69;5064711;28;20059;-69
2023/01/12 11:21:01;;;;;;;1.90;0.50;;;;;;;9.88;53.93;100403.03;5047201;28;20682;-68
2023/01/12 11:23:34;;;;;;;;;;;;;;;9.63;54.61;100401.66;5061841;28;20124;-68
2023/01/12 11:26:08;;;;;;;2.10;0.70;;;;;;;9.84;54.14;100413.34;5059361;28;19982;-69
2023/01/12 11:28:42;;;;;;;1.33;0.60;;;;;;;9.90;54.11;100403.75;5063719;28;20040;-68
2023/01/12 11:31:16;;;;;;;1.75;0.70;;;;;;;9.91;54.12;100406.31;5064043;28;20046;-69
2023/01/12 11:33:49;;;;;;;1.02;0.60;;;;;;;9.94;53.71;100407.91;5065554;28;20040;-68
2023/01/12 11:36:19;;;;;;;;;;;;;;;9.68;54.69;100410.28;5046042;28;20110;-68
2023/01/12 11:38:51;;;;;;;2.85;0.73;;;;;;;9.90;54.18;100410.09;5064639;28;19924;-70
2023/01/12 11:41:24;;;;;;;1.35;0.50;;;;;;;9.94;54.04;100410.66;5058928;28;20127;-68
2023/01/12 11:44:01;;;;;;;2.42;0.68;;;;;;;9.97;53.92;100404.91;5064568;28;20060;-69
2023/01/12 11:46:36;;;;;;;3.05;0.70;;;;;;;9.99;54.31;100414.69;5058638;28;20091;-69
2023/01/12 11:49:14;;;;;;;1.83;0.60;;;;;;;9.98;54.10;100401.19;5062947;28;20489;-69
2023/01/12 11:51:43;;;;;;;1.08;0.50;;;;;;;9.97;54.25;100397.56;5053957;28;20055;-69
2023/01/12 11:54:15;;;;;;;3.05;1.00;;;;;;;9.99;54.38;100397.44;5065074;28;20045;-70
2023/01/12 11:56:53;;;;;;;;;;;;;;;9.73;54.63;100395.22;5059901;28;20159;-69
2023/01/12 11:59:28;;;;;;;2.67;0.80;;;;;;;9.96;54.40;100384.91;5045789;28;20401;-69
2023/01/12 12:02:01;;;;;;;1.50;0.70;;;;;;;10.01;53.64;100389.94;5027612;28;20136;-70
2023/01/12 12:04:47;;;;;;;2.45;0.90;;;;;;;10.02;53.76;100378.00;5041261;28;20505;-69
2023/01/12 12:07:26;;;;;;;2.50;0.75;;;;;;;10.03;54.17;100388.78;5041071;28;20072;-69
2023/01/12 12:10:15;;;;;;;3.15;0.70;;;;;;;10.05;54.13;100383.19;5042816;28;20041;-69
2023/01/12 12:12:50;;;;;;;1.50;0.60;;;;;;;10.04;54.21;100390.53;5040158;28;20077;-69
2023/01/12 12:15:29;;;;;;;1.55;0.70;;;;;;;10.09;54.21;100376.41;5037838;28;20113;-70
2023/01/12 12:18:11;;;;;;;1.90;0.73;;;;;;;10.09;53.91;100384.63;5039108;28;20056;-69
2023/01/12 12:20:46;;;;;;;3.90;1.50;;;;;;;10.08;53.97;100386.50;5035540;28;20055;-69
2023/01/12 12:23:26;;;;;;;2.75;0.98;;;;;;;10.12;53.79;100362.47;5025069;28;20565;-69
2023/01/12 12:26:06;;;;;;;2.58;0.90;;;;;;;10.13;54.23;100364.19;5025146;28;20055;-69
2023/01/12 12:28:54;;;;;;;1.95;0.90;;;;;;;10.14;53.95;100371.41;5026669;28;20116;-69
2023/01/12 12:31:37;;;;;;;2.67;0.77;;;;;;;10.15;53.97;100370.41;5041408;28;20048;-69